.
WxDataArchive / Data Records for 2007-11-26
2007-11-25 November 2007 2007-11-27

Data Records for Monday, 26 November 2007

Time	Temp	Chill	HIndex	Humid	Dewpt	 Wind 	HiWind	WindDir	Rain 	Barom 
-----	----	-----	------	-----	-----	------	------	-------	-----	----- 
00:00	34.6	34.6	34.6	95	33.3	0	0	---	0.00	30.005 
00:05	34.6	34.6	34.6	95	33.3	0	0	---	0.00	30.003 
00:10	34.6	34.6	34.6	95	33.3	0	0	---	0.00	30.002 
00:15	34.7	34.7	34.7	95	33.4	0	0	---	0.00	30.003 
00:20	34.7	34.7	34.7	95	33.4	0	0	---	0.00	29.994 
00:25	34.7	34.7	34.7	95	33.4	0	0	---	0.00	30.002 
00:30	34.7	34.7	34.7	95	33.4	0	0	---	0.00	30.002 
00:35	34.7	34.7	34.7	95	33.4	0	1	158	0.00	30.002 
00:40	34.9	34.9	34.9	95	33.6	0	1	158	0.00	29.994 
00:45	34.9	34.9	34.9	95	33.6	0	1	158	0.00	29.991 
00:50	34.9	34.9	34.9	95	33.6	0	1	158	0.00	29.996 
00:55	34.9	34.9	34.9	95	33.6	0	0	---	0.00	29.997 
01:00	34.9	34.9	34.9	95	33.6	0	0	---	0.00	30.001 
01:05	34.9	34.9	34.9	95	33.6	0	0	---	0.00	29.996 
01:10	34.9	34.9	34.9	95	33.6	0	0	---	0.00	29.989 
01:15	34.9	34.9	34.9	95	33.6	0	0	---	0.00	29.990 
01:20	34.9	34.9	34.9	95	33.6	0	0	---	0.00	29.989 
01:25	34.9	34.9	34.9	95	33.6	0	0	---	0.00	29.986 
01:30	34.7	34.7	34.7	95	33.4	0	0	---	0.00	29.981 
01:35	34.7	34.7	34.7	95	33.4	0	1	158	0.00	29.981 
01:40	34.4	34.4	34.4	95	33.1	0	0	---	0.00	29.976 
01:45	34.3	34.3	34.3	95	33.0	0	1	158	0.00	29.974 
01:50	34.1	34.1	34.1	95	32.8	0	0	---	0.00	29.976 
01:55	33.8	33.8	33.8	95	32.5	0	0	---	0.00	29.975 
02:00	33.7	33.7	33.7	95	32.4	0	0	---	0.00	29.977 
02:05	33.5	33.5	33.5	95	32.2	0	0	---	0.00	29.974 
02:10	33.7	33.7	33.7	95	32.4	0	1	158	0.00	29.980 
02:15	33.8	33.8	33.8	95	32.5	0	2	158	0.00	29.977 
02:20	34.0	34.0	34.0	95	32.7	0	1	158	0.00	29.982 
02:25	34.1	34.1	34.1	95	32.8	0	3	248	0.00	29.981 
02:30	34.3	34.3	34.3	95	33.0	0	3	248	0.00	29.981 
02:35	34.3	34.3	34.3	95	33.0	0	1	248	0.00	29.974 
02:40	34.4	34.4	34.4	96	33.4	0	0	---	0.00	29.973 
02:45	34.4	34.4	34.4	96	33.4	0	0	---	0.00	29.973 
02:50	34.6	34.6	34.6	95	33.3	0	0	---	0.00	29.975 
02:55	34.6	34.6	34.6	96	33.6	0	0	---	0.00	29.976 
03:00	34.6	34.6	34.6	96	33.6	0	1	248	0.00	29.974 
03:05	34.6	34.6	34.6	96	33.6	0	0	---	0.00	29.979 
03:10	34.7	34.7	34.7	96	33.7	0	0	---	0.00	29.980 
03:15	34.7	34.7	34.7	96	33.7	0	0	---	0.00	29.974 
03:20	34.7	34.7	34.7	96	33.7	0	0	---	0.00	29.974 
03:25	34.7	34.7	34.7	96	33.7	0	1	248	0.00	29.973 
03:30	34.7	34.7	34.7	96	33.7	0	1	248	0.00	29.972 
03:35	34.9	34.9	34.9	96	33.9	0	0	---	0.00	29.971 
03:40	34.9	34.9	34.9	96	33.9	0	0	---	0.00	29.974 
03:45	34.9	34.9	34.9	96	33.9	0	1	248	0.00	29.974 
03:50	34.9	34.9	34.9	96	33.9	0	0	---	0.00	29.974 
03:55	35.0	35.0	35.0	96	34.0	0	0	---	0.00	29.973 
04:00	35.0	35.0	35.0	96	34.0	0	0	---	0.00	29.960 
04:05	35.0	35.0	35.0	96	34.0	0	0	---	0.00	29.960 
04:10	35.0	35.0	35.0	96	34.0	0	0	---	0.00	29.959 
04:15	35.0	35.0	35.0	96	34.0	0	0	---	0.00	29.959 
04:20	35.0	35.0	35.0	96	34.0	0	0	---	0.00	29.954 
04:25	35.0	35.0	35.0	96	34.0	0	0	---	0.00	29.947 
04:30	35.0	35.0	35.0	96	34.0	0	0	---	0.00	29.944 
04:35	35.0	35.0	35.0	96	34.0	0	1	248	0.00	29.941 
04:40	35.0	35.0	35.0	96	34.0	0	0	---	0.00	29.944 
04:45	35.2	35.2	35.2	96	34.2	0	0	---	0.00	29.942 
04:50	35.2	35.2	35.2	96	34.2	0	0	---	0.00	29.935 
04:55	35.2	35.2	35.2	96	34.2	0	0	---	0.00	29.930 
05:00	35.3	35.3	35.3	96	34.3	0	1	248	0.00	29.926 
05:05	35.3	35.3	35.3	96	34.3	0	1	248	0.00	29.921 
05:10	35.2	35.2	35.2	96	34.2	0	0	---	0.00	29.926 
05:15	35.3	35.3	35.3	96	34.3	0	1	248	0.00	29.921 
05:20	35.2	35.2	35.2	96	34.2	0	1	248	0.00	29.915 
05:25	35.2	35.2	35.2	96	34.2	0	2	248	0.00	29.911 
05:30	35.2	35.2	35.2	96	34.2	0	1	248	0.00	29.914 
05:35	35.2	35.2	35.2	96	34.2	0	1	248	0.00	29.918 
05:40	35.2	35.2	35.2	96	34.2	0	0	---	0.00	29.917 
05:45	35.2	35.2	35.2	96	34.2	0	1	248	0.00	29.924 
05:50	35.2	35.2	35.2	96	34.2	0	0	---	0.00	29.927 
05:55	35.3	35.3	35.3	96	34.3	0	0	---	0.00	29.929 
06:00	35.3	35.3	35.3	96	34.3	0	0	---	0.00	29.930 
06:05	35.3	35.3	35.3	96	34.3	0	1	248	0.00	29.927 
06:10	35.3	35.3	35.3	96	34.3	0	1	248	0.00	29.929 
06:15	35.3	35.3	35.3	96	34.3	0	1	248	0.00	29.929 
06:20	35.3	35.3	35.3	96	34.3	0	1	248	0.00	29.928 
06:25	35.3	35.3	35.3	96	34.3	0	1	248	0.00	29.932 
06:30	35.3	35.3	35.3	96	34.3	0	1	248	0.00	29.927 
06:35	35.5	35.5	35.5	96	34.5	0	0	---	0.01	29.930 
06:40	35.5	35.5	35.5	96	34.5	0	0	---	0.00	29.932 
06:45	35.5	35.5	35.5	96	34.5	0	0	---	0.00	29.942 
06:50	35.5	35.5	35.5	96	34.5	0	0	---	0.00	29.944 
06:55	35.5	35.5	35.5	96	34.5	0	0	---	0.00	29.930 
07:00	35.5	35.5	35.5	96	34.5	0	1	248	0.01	29.939 
07:05	35.5	35.5	35.5	96	34.5	0	0	---	0.01	29.939 
07:10	35.5	35.5	35.5	96	34.5	0	1	248	0.01	29.937 
07:15	35.5	35.5	35.5	96	34.5	0	1	248	0.01	29.930 
07:20	35.5	35.5	35.5	96	34.5	0	0	---	0.00	29.933 
07:25	35.5	35.5	35.5	96	34.5	0	1	248	0.00	29.930 
07:30	35.5	35.5	35.5	96	34.5	0	2	248	0.01	29.931 
07:35	35.5	35.5	35.5	96	34.5	0	1	248	0.00	29.933 
07:40	35.5	35.5	35.5	96	34.5	0	1	248	0.00	29.933 
07:45	35.5	35.5	35.5	96	34.5	0	1	248	0.00	29.933 
07:50	35.5	35.5	35.5	96	34.5	0	1	248	0.01	29.931 
07:55	35.5	35.5	35.5	96	34.5	0	2	248	0.00	29.929 
08:00	35.5	35.5	35.5	96	34.5	0	2	248	0.00	29.936 
08:05	35.5	35.5	35.5	96	34.5	0	0	---	0.00	29.936 
08:10	35.5	35.5	35.5	96	34.5	0	1	248	0.01	29.934 
08:15	35.5	35.5	35.5	96	34.5	0	0	---	0.01	29.934 
08:20	35.5	35.5	35.5	96	34.5	0	1	248	0.01	29.930 
08:25	35.5	35.5	35.5	96	34.5	0	2	248	0.01	29.931 
08:30	35.5	35.5	35.5	96	34.5	0	3	248	0.00	29.929 
08:35	35.5	35.5	35.5	96	34.5	0	2	158	0.00	29.926 
08:40	35.5	35.5	35.5	96	34.5	0	1	158	0.01	29.925 
08:45	35.5	35.5	35.5	96	34.5	0	1	158	0.01	29.927 
08:50	35.5	35.5	35.5	96	34.5	1	4	158	0.00	29.925 
08:55	35.5	35.5	35.5	96	34.5	1	4	112	0.01	29.918 
09:00	35.5	35.5	35.5	96	34.5	0	1	112	0.01	29.926 
09:05	35.5	35.5	35.5	96	34.5	0	1	112	0.00	29.930 
09:10	35.5	35.5	35.5	96	34.5	0	2	112	0.00	29.936 
09:15	35.5	35.5	35.5	96	34.5	0	2	112	0.00	29.932 
09:20	35.6	35.6	35.6	96	34.6	0	2	112	0.00	29.916 
09:25	35.6	35.6	35.6	96	34.6	0	2	112	0.00	29.913 
09:30	35.6	35.6	35.6	96	34.6	0	4	112	0.00	29.910 
09:35	35.6	35.6	35.6	96	34.6	0	2	112	0.00	29.902 
09:40	35.6	35.6	35.6	96	34.6	1	2	112	0.00	29.892 
09:45	35.6	35.6	35.6	96	34.6	0	2	45	0.00	29.891 
09:50	35.6	35.6	35.6	96	34.6	0	2	45	0.00	29.892 
09:55	35.6	35.6	35.6	96	34.6	0	1	45	0.00	29.897 
10:00	35.6	35.6	35.6	96	34.6	0	1	45	0.00	29.903 
10:05	35.6	35.6	35.6	96	34.6	0	1	45	0.00	29.913 
10:10	35.8	35.8	35.8	96	34.8	0	0	---	0.00	29.917 
10:15	35.8	35.8	35.8	96	34.8	0	1	45	0.00	29.905 
10:20	35.9	35.9	35.9	96	34.9	0	2	45	0.00	29.896 
10:25	36.0	36.0	36.0	96	35.0	0	1	45	0.00	29.895 
10:30	36.2	36.2	36.2	96	35.2	0	3	112	0.00	29.884 
10:35	36.2	36.2	36.2	96	35.2	0	2	68	0.00	29.877 
10:40	36.2	36.2	36.2	96	35.2	1	4	112	0.00	29.881 
10:45	36.2	36.2	36.2	96	35.2	0	2	112	0.00	29.880 
10:50	36.3	36.3	36.3	96	35.3	0	2	112	0.00	29.880 
10:55	36.5	36.5	36.5	96	35.5	0	2	112	0.00	29.876 
11:00	36.6	36.6	36.6	96	35.6	1	3	112	0.00	29.865 
11:05	36.8	36.8	36.8	96	35.8	0	3	45	0.00	29.877 
11:10	36.8	36.8	36.8	96	35.8	0	2	45	0.00	29.879 
11:15	36.6	36.6	36.6	96	35.6	0	2	45	0.00	29.880 
11:20	36.6	36.6	36.6	96	35.6	0	2	158	0.00	29.888 
11:25	36.5	36.5	36.5	96	35.5	0	1	158	0.00	29.887 
11:30	36.5	36.5	36.5	96	35.5	0	2	90	0.00	29.893 
11:35	36.5	36.5	36.5	96	35.5	0	2	90	0.00	29.889 
11:40	36.5	36.5	36.5	96	35.5	0	1	90	0.00	29.880 
11:45	36.5	36.5	36.5	96	35.5	0	1	90	0.00	29.876 
11:50	36.5	36.5	36.5	96	35.5	0	2	68	0.00	29.861 
11:55	36.5	36.5	36.5	96	35.5	0	2	68	0.00	29.852 
12:00	36.6	36.6	36.6	96	35.6	0	2	68	0.00	29.845 
12:05	36.6	36.6	36.6	96	35.6	0	3	158	0.00	29.843 
12:10	36.5	36.5	36.5	96	35.5	0	2	338	0.00	29.832 
12:15	36.5	36.5	36.5	96	35.5	0	2	338	0.00	29.829 
12:20	36.3	36.3	36.3	96	35.3	0	3	338	0.00	29.838 
12:25	36.2	36.2	36.2	96	35.2	0	2	90	0.00	29.849 
12:30	36.0	36.0	36.0	96	35.0	0	3	270	0.00	29.847 
12:35	36.0	36.0	36.0	96	35.0	0	2	22	0.00	29.850 
12:40	36.0	36.0	36.0	96	35.0	0	1	22	0.00	29.851 
12:45	36.0	36.0	36.0	96	35.0	0	1	22	0.00	29.851 
12:50	36.0	36.0	36.0	96	35.0	0	1	22	0.00	29.849 
12:55	36.2	36.2	36.2	96	35.2	0	2	22	0.00	29.840 
13:00	36.3	36.3	36.3	96	35.3	0	4	22	0.00	29.829 
13:05	36.3	36.3	36.3	96	35.3	1	3	338	0.00	29.821 
13:10	36.3	36.3	36.3	96	35.3	0	3	0	0.00	29.809 
13:15	36.5	36.5	36.5	96	35.5	1	4	90	0.00	29.803 
13:20	36.5	36.5	36.5	96	35.5	1	4	112	0.00	29.810 
13:25	36.5	36.5	36.5	96	35.5	0	3	270	0.00	29.820 
13:30	36.3	36.3	36.3	96	35.3	0	3	338	0.00	29.822 
13:35	36.3	36.3	36.3	96	35.3	0	2	338	0.00	29.820 
13:40	36.3	36.3	36.3	96	35.3	0	3	338	0.00	29.815 
13:45	36.2	36.2	36.2	96	35.2	0	3	338	0.00	29.809 
13:50	36.2	36.2	36.2	96	35.2	0	3	338	0.00	29.802 
13:55	36.2	36.2	36.2	95	34.9	1	3	315	0.00	29.809 
14:00	36.3	36.3	36.3	95	35.0	0	2	45	0.00	29.802 
14:05	36.6	36.6	36.6	96	35.6	0	1	45	0.00	29.799 
14:10	36.8	36.8	36.8	96	35.8	0	1	45	0.00	29.792 
14:15	36.6	36.6	36.6	95	35.3	1	3	315	0.00	29.800 
14:20	36.5	36.5	36.5	95	35.2	1	3	45	0.00	29.791 
14:25	36.5	36.5	36.5	95	35.2	1	2	338	0.00	29.788 
14:30	36.5	36.5	36.5	95	35.2	1	3	338	0.00	29.776 
14:35	36.8	36.8	36.8	95	35.5	0	1	315	0.00	29.781 
14:40	36.6	36.6	36.6	95	35.3	1	3	22	0.00	29.782 
14:45	36.6	36.6	36.6	95	35.3	1	4	22	0.00	29.776 
14:50	36.8	36.8	36.8	95	35.5	1	4	45	0.00	29.771 
14:55	36.6	36.6	36.6	95	35.3	1	4	22	0.00	29.776 
15:00	36.6	36.6	36.6	94	35.0	0	3	112	0.00	29.787 
15:05	36.5	36.5	36.5	94	34.9	1	4	158	0.00	29.797 
15:10	36.5	36.5	36.5	94	34.9	0	2	45	0.00	29.787 
15:15	36.5	36.5	36.5	94	34.9	1	4	45	0.00	29.790 
15:20	36.5	36.5	36.5	94	34.9	0	3	90	0.00	29.802 
15:25	36.5	36.5	36.5	93	34.7	1	3	22	0.00	29.803 
15:30	36.5	36.5	36.5	93	34.7	0	3	292	0.00	29.812 
15:35	36.5	36.5	36.5	93	34.7	0	1	292	0.00	29.812 
15:40	36.5	36.5	36.5	93	34.7	0	2	22	0.00	29.818 
15:45	36.3	36.3	36.3	93	34.5	0	1	22	0.00	29.820 
15:50	36.2	36.2	36.2	92	34.1	0	1	22	0.00	29.817 
15:55	36.0	36.0	36.0	92	33.9	0	3	22	0.00	29.820 
16:00	35.9	35.9	35.9	92	33.8	0	2	292	0.00	29.819 
16:05	35.9	35.9	35.9	92	33.8	0	1	292	0.00	29.833 
16:10	35.8	35.8	35.8	93	34.0	0	2	292	0.00	29.835 
16:15	35.8	35.8	35.8	93	34.0	0	1	292	0.00	29.827 
16:20	35.8	35.8	35.8	93	34.0	0	0	---	0.00	29.830 
16:25	35.8	35.8	35.8	93	34.0	0	1	292	0.00	29.838 
16:30	35.8	35.8	35.8	93	34.0	0	1	292	0.00	29.834 
16:35	35.8	35.8	35.8	93	34.0	0	1	292	0.00	29.834 
16:40	35.6	35.6	35.6	94	34.0	0	2	338	0.00	29.834 
16:45	35.6	35.6	35.6	94	34.0	0	2	0	0.00	29.818 
16:50	35.6	35.6	35.6	94	34.0	0	2	0	0.00	29.819 
16:55	35.5	35.5	35.5	94	33.9	0	2	0	0.00	29.833 
17:00	35.6	35.6	35.6	94	34.0	0	1	0	0.00	29.848 
17:05	35.6	35.6	35.6	94	34.0	0	2	0	0.00	29.843 
17:10	35.3	35.3	35.3	94	33.7	0	1	0	0.00	29.850 
17:15	34.9	34.9	34.9	94	33.4	0	2	0	0.00	29.860 
17:20	34.7	34.7	34.7	94	33.2	0	2	0	0.00	29.866 
17:25	34.7	34.7	34.7	94	33.2	0	1	0	0.00	29.873 
17:30	34.7	34.7	34.7	94	33.2	1	4	270	0.00	29.877 
17:35	34.7	34.7	34.7	94	33.2	1	2	338	0.00	29.875 
17:40	34.7	34.7	34.7	95	33.4	1	2	338	0.00	29.880 
17:45	34.6	34.6	34.6	95	33.3	0	2	338	0.00	29.878 
17:50	34.6	34.6	34.6	95	33.3	0	2	338	0.00	29.881 
17:55	34.6	34.6	34.6	95	33.3	0	1	338	0.00	29.881 
18:00	34.6	34.6	34.6	95	33.3	0	1	338	0.00	29.882 
18:05	34.6	34.6	34.6	95	33.3	0	1	338	0.00	29.886 
18:10	34.6	34.6	34.6	95	33.3	0	1	338	0.00	29.888 
18:15	34.4	34.4	34.4	95	33.1	0	2	338	0.00	29.883 
18:20	34.4	34.4	34.4	95	33.1	0	1	338	0.00	29.881 
18:25	34.4	34.4	34.4	95	33.1	0	1	338	0.00	29.880 
18:30	34.4	34.4	34.4	95	33.1	0	1	338	0.00	29.886 
18:35	34.4	34.4	34.4	95	33.1	0	1	338	0.00	29.883 
18:40	34.4	34.4	34.4	95	33.1	0	1	338	0.00	29.889 
18:45	34.3	34.3	34.3	95	33.0	0	1	338	0.00	29.891 
18:50	34.1	34.1	34.1	95	32.8	0	1	338	0.00	29.894 
18:55	34.0	34.0	34.0	95	32.7	0	2	338	0.00	29.895 
19:00	34.0	34.0	34.0	95	32.7	0	1	338	0.00	29.898 
19:05	34.0	34.0	34.0	95	32.7	0	2	315	0.00	29.900 
19:10	34.0	34.0	34.0	95	32.7	0	2	315	0.00	29.905 
19:15	34.0	34.0	34.0	95	32.7	0	2	315	0.00	29.910 
19:20	34.1	34.1	34.1	95	32.8	0	1	292	0.00	29.912 
19:25	34.1	34.1	34.1	96	33.1	0	2	270	0.00	29.912 
19:30	34.3	34.3	34.3	96	33.3	0	1	270	0.00	29.909 
19:35	34.3	34.3	34.3	96	33.3	0	1	270	0.00	29.911 
19:40	34.3	34.3	34.3	96	33.3	1	2	248	0.00	29.912 
19:45	34.3	34.3	34.3	96	33.3	0	2	270	0.00	29.913 
19:50	34.4	34.4	34.4	96	33.4	0	2	270	0.00	29.912 
19:55	34.4	34.4	34.4	96	33.4	0	2	270	0.00	29.912 
20:00	34.4	34.4	34.4	96	33.4	0	3	270	0.00	29.914 
20:05	34.4	34.4	34.4	96	33.4	1	2	270	0.00	29.914 
20:10	34.4	34.4	34.4	96	33.4	0	1	248	0.00	29.914 
20:15	34.6	34.6	34.6	96	33.6	0	1	248	0.00	29.913 
20:20	34.6	34.6	34.6	96	33.6	0	2	248	0.00	29.917 
20:25	34.6	34.6	34.6	96	33.6	1	2	248	0.00	29.926 
20:30	34.6	34.6	34.6	96	33.6	1	3	248	0.00	29.926 
20:35	34.7	34.7	34.7	96	33.7	1	3	248	0.00	29.929 
20:40	34.7	34.7	34.7	96	33.7	0	2	225	0.00	29.929 
20:45	34.9	34.9	34.9	96	33.9	1	3	248	0.00	29.934 
20:50	34.9	34.9	34.9	96	33.9	1	3	248	0.00	29.931 
20:55	34.9	34.9	34.9	96	33.9	1	2	248	0.00	29.931 
21:00	35.0	35.0	35.0	96	34.0	0	2	270	0.00	29.939 
21:05	35.0	35.0	35.0	96	34.0	1	4	248	0.00	29.944 
21:10	35.2	35.2	35.2	96	34.2	0	2	248	0.00	29.944 
21:15	35.3	35.3	35.3	96	34.3	1	3	248	0.00	29.946 
21:20	35.3	35.3	35.3	96	34.3	1	5	248	0.00	29.950 
21:25	35.3	35.3	35.3	96	34.3	1	3	248	0.00	29.951 
21:30	35.5	35.5	35.5	96	34.5	1	3	270	0.00	29.945 
21:35	35.5	35.5	35.5	96	34.5	1	5	248	0.00	29.944 
21:40	35.6	35.6	35.6	96	34.6	1	4	248	0.00	29.950 
21:45	35.6	35.6	35.6	96	34.6	0	2	248	0.00	29.954 
21:50	35.8	35.8	35.8	96	34.8	1	4	248	0.00	29.954 
21:55	35.8	35.8	35.8	96	34.8	1	4	270	0.00	29.958 
22:00	35.8	35.8	35.8	96	34.8	1	3	248	0.00	29.961 
22:05	35.9	35.9	35.9	96	34.9	1	2	248	0.00	29.963 
22:10	35.9	35.9	35.9	96	34.9	1	3	270	0.00	29.966 
22:15	36.0	36.0	36.0	96	35.0	1	3	270	0.00	29.967 
22:20	36.0	36.0	36.0	96	35.0	0	2	270	0.00	29.964 
22:25	36.2	36.2	36.2	96	35.2	1	2	270	0.00	29.969 
22:30	36.2	36.2	36.2	96	35.2	1	3	248	0.00	29.966 
22:35	36.2	36.2	36.2	96	35.2	1	5	248	0.00	29.962 
22:40	36.2	36.2	36.2	96	35.2	1	3	248	0.00	29.961 
22:45	36.3	36.3	36.3	96	35.3	0	1	248	0.00	29.958 
22:50	36.3	36.3	36.3	96	35.3	0	2	248	0.00	29.961 
22:55	36.3	36.3	36.3	96	35.3	0	2	248	0.00	29.964 
23:00	36.3	36.3	36.3	96	35.3	1	3	248	0.00	29.963 
23:05	36.5	36.5	36.5	96	35.5	1	2	248	0.00	29.966 
23:10	36.5	36.5	36.5	96	35.5	0	2	248	0.00	29.970 
23:15	36.5	36.5	36.5	96	35.5	1	4	248	0.00	29.972 
23:20	36.6	36.6	36.6	96	35.6	1	4	248	0.00	29.973 
23:25	36.8	36.8	36.8	96	35.8	1	4	248	0.00	29.977 
23:30	36.8	36.8	36.8	96	35.8	1	4	248	0.00	29.983 
23:35	36.9	36.9	36.9	96	35.9	1	3	248	0.00	29.988 
23:40	36.9	36.9	36.9	96	35.9	1	4	248	0.00	29.989 
23:45	37.0	37.0	37.0	96	36.0	2	7	248	0.00	29.994 
23:50	37.0	37.0	37.0	96	36.0	2	5	248	0.00	29.999 
23:55	37.2	37.2	37.2	95	35.9	0	2	248	0.00	30.001 

CoCoRaHS
IN-AL-39
A2 Web Hosting
Creative Commons License
GoDaddy
Look for:

loaded 2017-12-13 15:52:05 • last modified 2010-11-18 10:43:29
Privacy PolicyDisclaimer
• wx.awcolley.com is powered by PmWiki v.2002016 •
• all content (unless otherwise noted) © 2017 A W Colley